sensor_id;sensor_type;location;lat;lon;timestamp;P1;durP1;ratioP1;P2;durP2;ratioP2
61471;SDS011;47337;54.068;12.114;2023-05-07T00:01:55;9.13;;;4.82;;
61471;SDS011;47337;54.068;12.114;2023-05-07T00:04:23;7.55;;;4.88;;
61471;SDS011;47337;54.068;12.114;2023-05-07T00:06:49;8.40;;;5.18;;
61471;SDS011;47337;54.068;12.114;2023-05-07T00:09:17;7.47;;;4.63;;
61471;SDS011;47337;54.068;12.114;2023-05-07T00:11:45;6.60;;;4.43;;
61471;SDS011;47337;54.068;12.114;2023-05-07T00:14:10;12.05;;;4.85;;
61471;SDS011;47337;54.068;12.114;2023-05-07T00:16:36;9.88;;;4.88;;
61471;SDS011;47337;54.068;12.114;2023-05-07T00:19:01;8.13;;;4.78;;
61471;SDS011;47337;54.068;12.114;2023-05-07T00:21:26;8.00;;;4.65;;
61471;SDS011;47337;54.068;12.114;2023-05-07T00:23:52;8.25;;;4.97;;
61471;SDS011;47337;54.068;12.114;2023-05-07T00:26:20;8.25;;;5.00;;
61471;SDS011;47337;54.068;12.114;2023-05-07T00:28:48;9.80;;;4.55;;
61471;SDS011;47337;54.068;12.114;2023-05-07T00:31:13;11.50;;;5.43;;
61471;SDS011;47337;54.068;12.114;2023-05-07T00:33:39;9.32;;;4.68;;
61471;SDS011;47337;54.068;12.114;2023-05-07T00:36:07;11.77;;;4.88;;
61471;SDS011;47337;54.068;12.114;2023-05-07T00:38:32;6.22;;;4.40;;
61471;SDS011;47337;54.068;12.114;2023-05-07T00:41:00;7.53;;;5.35;;
61471;SDS011;47337;54.068;12.114;2023-05-07T00:43:27;6.15;;;4.05;;
61471;SDS011;47337;54.068;12.114;2023-05-07T00:45:52;8.27;;;4.88;;
61471;SDS011;47337;54.068;12.114;2023-05-07T00:48:17;9.50;;;5.13;;
61471;SDS011;47337;54.068;12.114;2023-05-07T00:50:43;9.27;;;5.10;;
61471;SDS011;47337;54.068;12.114;2023-05-07T00:53:09;7.88;;;5.13;;
61471;SDS011;47337;54.068;12.114;2023-05-07T00:55:38;9.73;;;4.40;;
61471;SDS011;47337;54.068;12.114;2023-05-07T00:58:04;11.38;;;4.85;;
61471;SDS011;47337;54.068;12.114;2023-05-07T01:00:29;10.30;;;4.53;;
61471;SDS011;47337;54.068;12.114;2023-05-07T01:02:57;9.43;;;4.50;;
61471;SDS011;47337;54.068;12.114;2023-05-07T01:05:23;9.80;;;4.75;;
61471;SDS011;47337;54.068;12.114;2023-05-07T01:07:52;10.63;;;4.50;;
61471;SDS011;47337;54.068;12.114;2023-05-07T01:10:19;13.18;;;4.35;;
61471;SDS011;47337;54.068;12.114;2023-05-07T01:12:46;9.10;;;4.90;;
61471;SDS011;47337;54.068;12.114;2023-05-07T01:15:13;7.28;;;4.70;;
61471;SDS011;47337;54.068;12.114;2023-05-07T01:17:39;8.30;;;4.35;;
61471;SDS011;47337;54.068;12.114;2023-05-07T01:20:06;10.73;;;5.18;;
61471;SDS011;47337;54.068;12.114;2023-05-07T01:22:41;7.72;;;4.55;;
61471;SDS011;47337;54.068;12.114;2023-05-07T01:25:08;10.98;;;5.25;;
61471;SDS011;47337;54.068;12.114;2023-05-07T01:27:34;8.00;;;4.85;;
61471;SDS011;47337;54.068;12.114;2023-05-07T01:30:01;11.63;;;5.43;;
61471;SDS011;47337;54.068;12.114;2023-05-07T01:32:29;9.02;;;4.65;;
61471;SDS011;47337;54.068;12.114;2023-05-07T01:35:02;9.27;;;5.45;;
61471;SDS011;47337;54.068;12.114;2023-05-07T01:37:32;9.23;;;5.18;;
61471;SDS011;47337;54.068;12.114;2023-05-07T01:40:00;12.13;;;5.55;;
61471;SDS011;47337;54.068;12.114;2023-05-07T01:42:27;13.65;;;5.68;;
61471;SDS011;47337;54.068;12.114;2023-05-07T01:44:53;9.27;;;5.20;;
61471;SDS011;47337;54.068;12.114;2023-05-07T01:47:22;9.40;;;5.00;;
61471;SDS011;47337;54.068;12.114;2023-05-07T01:49:48;9.05;;;4.82;;
61471;SDS011;47337;54.068;12.114;2023-05-07T01:52:13;9.13;;;4.80;;
61471;SDS011;47337;54.068;12.114;2023-05-07T01:54:41;13.23;;;5.15;;
61471;SDS011;47337;54.068;12.114;2023-05-07T01:57:07;9.10;;;5.05;;
61471;SDS011;47337;54.068;12.114;2023-05-07T01:59:33;10.15;;;5.00;;
61471;SDS011;47337;54.068;12.114;2023-05-07T02:01:58;9.40;;;5.03;;
61471;SDS011;47337;54.068;12.114;2023-05-07T02:04:23;9.82;;;4.40;;
61471;SDS011;47337;54.068;12.114;2023-05-07T02:06:54;11.45;;;5.32;;
61471;SDS011;47337;54.068;12.114;2023-05-07T02:09:20;10.35;;;4.78;;
61471;SDS011;47337;54.068;12.114;2023-05-07T02:11:46;7.78;;;4.70;;
61471;SDS011;47337;54.068;12.114;2023-05-07T02:14:11;10.18;;;4.30;;
61471;SDS011;47337;54.068;12.114;2023-05-07T02:16:41;8.98;;;4.90;;
61471;SDS011;47337;54.068;12.114;2023-05-07T02:19:06;12.27;;;5.78;;
61471;SDS011;47337;54.068;12.114;2023-05-07T02:21:32;12.38;;;5.30;;
61471;SDS011;47337;54.068;12.114;2023-05-07T02:23:59;9.10;;;4.90;;
61471;SDS011;47337;54.068;12.114;2023-05-07T02:26:25;13.57;;;5.13;;
61471;SDS011;47337;54.068;12.114;2023-05-07T02:28:50;9.02;;;4.72;;
61471;SDS011;47337;54.068;12.114;2023-05-07T02:31:16;10.35;;;4.88;;
61471;SDS011;47337;54.068;12.114;2023-05-07T02:33:42;12.73;;;4.93;;
61471;SDS011;47337;54.068;12.114;2023-05-07T02:36:08;13.15;;;5.03;;
61471;SDS011;47337;54.068;12.114;2023-05-07T02:38:36;10.50;;;5.20;;
61471;SDS011;47337;54.068;12.114;2023-05-07T02:41:02;11.70;;;5.32;;
61471;SDS011;47337;54.068;12.114;2023-05-07T02:43:29;9.88;;;5.35;;
61471;SDS011;47337;54.068;12.114;2023-05-07T02:46:03;14.02;;;5.50;;
61471;SDS011;47337;54.068;12.114;2023-05-07T02:50:58;6.65;;;4.85;;
61471;SDS011;47337;54.068;12.114;2023-05-07T02:53:24;15.18;;;5.40;;
61471;SDS011;47337;54.068;12.114;2023-05-07T02:55:55;8.50;;;5.18;;
61471;SDS011;47337;54.068;12.114;2023-05-07T02:58:24;10.48;;;5.32;;
61471;SDS011;47337;54.068;12.114;2023-05-07T03:00:49;9.82;;;5.50;;
61471;SDS011;47337;54.068;12.114;2023-05-07T03:03:17;12.88;;;5.43;;
61471;SDS011;47337;54.068;12.114;2023-05-07T03:05:43;7.00;;;5.10;;
61471;SDS011;47337;54.068;12.114;2023-05-07T03:08:09;10.60;;;5.60;;
61471;SDS011;47337;54.068;12.114;2023-05-07T03:10:35;13.02;;;5.65;;
61471;SDS011;47337;54.068;12.114;2023-05-07T03:13:01;11.07;;;5.60;;
61471;SDS011;47337;54.068;12.114;2023-05-07T03:15:27;15.57;;;5.47;;
61471;SDS011;47337;54.068;12.114;2023-05-07T03:17:52;11.90;;;4.97;;
61471;SDS011;47337;54.068;12.114;2023-05-07T03:20:17;10.55;;;4.57;;
61471;SDS011;47337;54.068;12.114;2023-05-07T03:22:43;8.15;;;4.60;;
61471;SDS011;47337;54.068;12.114;2023-05-07T03:25:09;10.38;;;4.78;;
61471;SDS011;47337;54.068;12.114;2023-05-07T03:27:39;13.50;;;5.47;;
61471;SDS011;47337;54.068;12.114;2023-05-07T03:30:04;9.80;;;4.78;;
61471;SDS011;47337;54.068;12.114;2023-05-07T03:32:31;7.85;;;4.53;;
61471;SDS011;47337;54.068;12.114;2023-05-07T03:35:00;7.72;;;4.68;;
61471;SDS011;47337;54.068;12.114;2023-05-07T03:37:26;8.50;;;4.60;;
61471;SDS011;47337;54.068;12.114;2023-05-07T03:39:53;8.98;;;4.80;;
61471;SDS011;47337;54.068;12.114;2023-05-07T03:42:19;7.97;;;5.20;;
61471;SDS011;47337;54.068;12.114;2023-05-07T03:44:45;9.52;;;4.43;;
61471;SDS011;47337;54.068;12.114;2023-05-07T03:47:10;10.75;;;4.93;;
61471;SDS011;47337;54.068;12.114;2023-05-07T03:49:36;10.85;;;4.57;;
61471;SDS011;47337;54.068;12.114;2023-05-07T03:52:04;8.18;;;4.53;;
61471;SDS011;47337;54.068;12.114;2023-05-07T03:54:31;9.32;;;4.75;;
61471;SDS011;47337;54.068;12.114;2023-05-07T03:56:59;6.60;;;3.95;;
61471;SDS011;47337;54.068;12.114;2023-05-07T03:59:25;8.23;;;4.20;;
61471;SDS011;47337;54.068;12.114;2023-05-07T04:01:50;10.63;;;4.72;;
61471;SDS011;47337;54.068;12.114;2023-05-07T04:04:16;12.82;;;4.82;;
61471;SDS011;47337;54.068;12.114;2023-05-07T04:06:41;9.50;;;4.10;;
61471;SDS011;47337;54.068;12.114;2023-05-07T04:09:07;9.88;;;4.35;;
61471;SDS011;47337;54.068;12.114;2023-05-07T04:11:35;9.48;;;4.45;;
61471;SDS011;47337;54.068;12.114;2023-05-07T04:14:01;11.18;;;4.70;;
61471;SDS011;47337;54.068;12.114;2023-05-07T04:16:26;7.32;;;3.53;;
61471;SDS011;47337;54.068;12.114;2023-05-07T04:18:52;6.40;;;3.60;;
61471;SDS011;47337;54.068;12.114;2023-05-07T04:21:18;8.65;;;3.85;;
61471;SDS011;47337;54.068;12.114;2023-05-07T04:23:46;10.93;;;3.22;;
61471;SDS011;47337;54.068;12.114;2023-05-07T04:26:13;7.50;;;3.60;;
61471;SDS011;47337;54.068;12.114;2023-05-07T04:28:42;5.05;;;3.33;;
61471;SDS011;47337;54.068;12.114;2023-05-07T04:31:07;6.75;;;3.35;;
61471;SDS011;47337;54.068;12.114;2023-05-07T04:33:36;4.90;;;3.17;;
61471;SDS011;47337;54.068;12.114;2023-05-07T04:36:01;6.53;;;3.58;;
61471;SDS011;47337;54.068;12.114;2023-05-07T04:38:28;5.75;;;3.30;;
61471;SDS011;47337;54.068;12.114;2023-05-07T04:40:58;6.35;;;3.30;;
61471;SDS011;47337;54.068;12.114;2023-05-07T04:43:30;5.78;;;3.40;;
61471;SDS011;47337;54.068;12.114;2023-05-07T04:45:55;7.88;;;3.70;;
61471;SDS011;47337;54.068;12.114;2023-05-07T04:48:21;7.38;;;3.88;;
61471;SDS011;47337;54.068;12.114;2023-05-07T04:50:47;5.70;;;3.63;;
61471;SDS011;47337;54.068;12.114;2023-05-07T04:53:13;5.68;;;3.60;;
61471;SDS011;47337;54.068;12.114;2023-05-07T04:55:41;7.18;;;3.80;;
61471;SDS011;47337;54.068;12.114;2023-05-07T04:58:06;6.05;;;3.38;;
61471;SDS011;47337;54.068;12.114;2023-05-07T05:00:32;5.95;;;3.60;;
61471;SDS011;47337;54.068;12.114;2023-05-07T05:02:58;6.22;;;3.85;;
61471;SDS011;47337;54.068;12.114;2023-05-07T05:05:26;8.60;;;3.75;;
61471;SDS011;47337;54.068;12.114;2023-05-07T05:07:51;5.97;;;4.00;;
61471;SDS011;47337;54.068;12.114;2023-05-07T05:10:17;7.47;;;4.07;;
61471;SDS011;47337;54.068;12.114;2023-05-07T05:12:42;6.75;;;4.00;;
61471;SDS011;47337;54.068;12.114;2023-05-07T05:15:08;7.55;;;3.92;;
61471;SDS011;47337;54.068;12.114;2023-05-07T05:17:35;5.93;;;3.75;;
61471;SDS011;47337;54.068;12.114;2023-05-07T05:20:01;6.28;;;3.80;;
61471;SDS011;47337;54.068;12.114;2023-05-07T05:22:27;6.97;;;3.95;;
61471;SDS011;47337;54.068;12.114;2023-05-07T05:24:56;6.18;;;3.78;;
61471;SDS011;47337;54.068;12.114;2023-05-07T05:27:24;4.45;;;3.45;;
61471;SDS011;47337;54.068;12.114;2023-05-07T05:29:49;7.63;;;3.20;;
61471;SDS011;47337;54.068;12.114;2023-05-07T05:32:14;8.10;;;3.70;;
61471;SDS011;47337;54.068;12.114;2023-05-07T05:34:40;7.53;;;3.97;;
61471;SDS011;47337;54.068;12.114;2023-05-07T05:37:05;6.35;;;3.80;;
61471;SDS011;47337;54.068;12.114;2023-05-07T05:39:33;5.05;;;3.92;;
61471;SDS011;47337;54.068;12.114;2023-05-07T05:41:59;6.15;;;4.03;;
61471;SDS011;47337;54.068;12.114;2023-05-07T05:44:24;6.40;;;4.35;;
61471;SDS011;47337;54.068;12.114;2023-05-07T05:46:52;4.68;;;3.90;;
61471;SDS011;47337;54.068;12.114;2023-05-07T05:49:20;6.15;;;4.28;;
61471;SDS011;47337;54.068;12.114;2023-05-07T05:51:46;8.13;;;4.55;;
61471;SDS011;47337;54.068;12.114;2023-05-07T05:54:11;8.40;;;4.47;;
61471;SDS011;47337;54.068;12.114;2023-05-07T05:56:39;7.55;;;4.47;;
61471;SDS011;47337;54.068;12.114;2023-05-07T05:59:04;6.95;;;4.85;;
61471;SDS011;47337;54.068;12.114;2023-05-07T06:01:35;6.93;;;4.53;;
61471;SDS011;47337;54.068;12.114;2023-05-07T06:04:00;6.03;;;4.35;;
61471;SDS011;47337;54.068;12.114;2023-05-07T06:06:28;5.70;;;4.55;;
61471;SDS011;47337;54.068;12.114;2023-05-07T06:08:53;8.88;;;4.68;;
61471;SDS011;47337;54.068;12.114;2023-05-07T06:11:21;6.50;;;4.55;;
61471;SDS011;47337;54.068;12.114;2023-05-07T06:13:46;6.70;;;4.88;;
61471;SDS011;47337;54.068;12.114;2023-05-07T06:16:12;8.18;;;3.88;;
61471;SDS011;47337;54.068;12.114;2023-05-07T06:18:37;9.07;;;4.78;;
61471;SDS011;47337;54.068;12.114;2023-05-07T06:21:03;6.97;;;4.10;;
61471;SDS011;47337;54.068;12.114;2023-05-07T06:23:28;7.65;;;4.35;;
61471;SDS011;47337;54.068;12.114;2023-05-07T06:25:53;7.60;;;4.60;;
61471;SDS011;47337;54.068;12.114;2023-05-07T06:28:21;8.40;;;4.35;;
61471;SDS011;47337;54.068;12.114;2023-05-07T06:30:47;12.02;;;4.68;;
61471;SDS011;47337;54.068;12.114;2023-05-07T06:33:16;5.82;;;4.35;;
61471;SDS011;47337;54.068;12.114;2023-05-07T06:35:41;7.63;;;4.85;;
61471;SDS011;47337;54.068;12.114;2023-05-07T06:38:06;5.65;;;4.18;;
61471;SDS011;47337;54.068;12.114;2023-05-07T06:40:32;7.35;;;4.90;;
61471;SDS011;47337;54.068;12.114;2023-05-07T06:42:57;6.57;;;4.35;;
61471;SDS011;47337;54.068;12.114;2023-05-07T06:45:22;5.90;;;4.45;;
61471;SDS011;47337;54.068;12.114;2023-05-07T06:47:50;5.97;;;3.83;;
61471;SDS011;47337;54.068;12.114;2023-05-07T06:50:16;5.13;;;3.92;;
61471;SDS011;47337;54.068;12.114;2023-05-07T06:52:44;6.38;;;4.40;;
61471;SDS011;47337;54.068;12.114;2023-05-07T06:55:12;8.10;;;4.38;;
61471;SDS011;47337;54.068;12.114;2023-05-07T06:57:37;6.72;;;4.20;;
61471;SDS011;47337;54.068;12.114;2023-05-07T07:00:04;7.07;;;4.25;;
61471;SDS011;47337;54.068;12.114;2023-05-07T07:02:36;6.53;;;4.22;;
61471;SDS011;47337;54.068;12.114;2023-05-07T07:05:01;5.65;;;3.75;;
61471;SDS011;47337;54.068;12.114;2023-05-07T07:07:27;8.57;;;3.40;;
61471;SDS011;47337;54.068;12.114;2023-05-07T07:09:52;7.75;;;3.70;;
61471;SDS011;47337;54.068;12.114;2023-05-07T07:12:17;6.05;;;3.17;;
61471;SDS011;47337;54.068;12.114;2023-05-07T07:14:43;4.93;;;3.20;;
61471;SDS011;47337;54.068;12.114;2023-05-07T07:17:11;5.20;;;3.53;;
61471;SDS011;47337;54.068;12.114;2023-05-07T07:19:36;4.40;;;3.20;;
61471;SDS011;47337;54.068;12.114;2023-05-07T07:22:02;3.47;;;3.00;;
61471;SDS011;47337;54.068;12.114;2023-05-07T07:24:28;3.67;;;2.47;;
61471;SDS011;47337;54.068;12.114;2023-05-07T07:26:53;5.60;;;3.50;;
61471;SDS011;47337;54.068;12.114;2023-05-07T07:29:20;5.97;;;2.92;;
61471;SDS011;47337;54.068;12.114;2023-05-07T07:31:45;4.57;;;3.05;;
61471;SDS011;47337;54.068;12.114;2023-05-07T07:34:11;3.78;;;2.60;;
61471;SDS011;47337;54.068;12.114;2023-05-07T07:36:36;3.33;;;2.63;;
61471;SDS011;47337;54.068;12.114;2023-05-07T07:39:01;3.45;;;2.38;;
61471;SDS011;47337;54.068;12.114;2023-05-07T07:41:27;4.03;;;2.88;;
61471;SDS011;47337;54.068;12.114;2023-05-07T07:43:52;3.08;;;2.40;;
61471;SDS011;47337;54.068;12.114;2023-05-07T07:46:18;4.45;;;2.75;;
61471;SDS011;47337;54.068;12.114;2023-05-07T07:48:45;4.20;;;2.55;;
61471;SDS011;47337;54.068;12.114;2023-05-07T07:51:13;3.42;;;2.88;;
61471;SDS011;47337;54.068;12.114;2023-05-07T07:53:41;4.05;;;2.97;;
61471;SDS011;47337;54.068;12.114;2023-05-07T07:56:09;4.82;;;2.50;;
61471;SDS011;47337;54.068;12.114;2023-05-07T07:58:37;3.83;;;2.72;;
61471;SDS011;47337;54.068;12.114;2023-05-07T08:01:04;4.88;;;2.70;;
61471;SDS011;47337;54.068;12.114;2023-05-07T08:03:29;3.75;;;2.78;;
61471;SDS011;47337;54.068;12.114;2023-05-07T08:05:57;6.30;;;2.83;;
61471;SDS011;47337;54.068;12.114;2023-05-07T08:08:23;3.55;;;3.05;;
61471;SDS011;47337;54.068;12.114;2023-05-07T08:10:48;4.70;;;2.78;;
61471;SDS011;47337;54.068;12.114;2023-05-07T08:13:15;4.28;;;2.80;;
61471;SDS011;47337;54.068;12.114;2023-05-07T08:15:41;4.43;;;2.88;;
61471;SDS011;47337;54.068;12.114;2023-05-07T08:18:06;4.60;;;2.92;;
61471;SDS011;47337;54.068;12.114;2023-05-07T08:20:31;5.78;;;3.30;;
61471;SDS011;47337;54.068;12.114;2023-05-07T08:23:04;5.40;;;3.25;;
61471;SDS011;47337;54.068;12.114;2023-05-07T08:25:32;4.65;;;3.13;;
61471;SDS011;47337;54.068;12.114;2023-05-07T08:27:58;4.47;;;2.78;;
61471;SDS011;47337;54.068;12.114;2023-05-07T08:30:23;5.40;;;3.33;;
61471;SDS011;47337;54.068;12.114;2023-05-07T08:32:49;4.32;;;2.83;;
61471;SDS011;47337;54.068;12.114;2023-05-07T08:35:14;8.57;;;3.60;;
61471;SDS011;47337;54.068;12.114;2023-05-07T08:37:39;4.95;;;3.30;;
61471;SDS011;47337;54.068;12.114;2023-05-07T08:40:07;4.53;;;3.40;;
61471;SDS011;47337;54.068;12.114;2023-05-07T08:42:35;4.15;;;3.10;;
61471;SDS011;47337;54.068;12.114;2023-05-07T08:45:02;5.10;;;3.17;;
61471;SDS011;47337;54.068;12.114;2023-05-07T08:47:38;6.50;;;2.70;;
61471;SDS011;47337;54.068;12.114;2023-05-07T08:50:12;4.28;;;2.97;;
61471;SDS011;47337;54.068;12.114;2023-05-07T08:52:38;4.35;;;3.00;;
61471;SDS011;47337;54.068;12.114;2023-05-07T08:55:05;5.70;;;3.15;;
61471;SDS011;47337;54.068;12.114;2023-05-07T08:57:34;4.68;;;3.28;;
61471;SDS011;47337;54.068;12.114;2023-05-07T09:00:00;5.57;;;3.22;;
61471;SDS011;47337;54.068;12.114;2023-05-07T09:02:26;5.82;;;2.95;;
61471;SDS011;47337;54.068;12.114;2023-05-07T09:04:54;5.32;;;3.22;;
61471;SDS011;47337;54.068;12.114;2023-05-07T09:07:20;5.72;;;2.83;;
61471;SDS011;47337;54.068;12.114;2023-05-07T09:09:48;5.03;;;2.88;;
61471;SDS011;47337;54.068;12.114;2023-05-07T09:12:14;3.85;;;3.00;;
61471;SDS011;47337;54.068;12.114;2023-05-07T09:14:39;6.28;;;2.63;;
61471;SDS011;47337;54.068;12.114;2023-05-07T09:17:05;6.15;;;3.22;;
61471;SDS011;47337;54.068;12.114;2023-05-07T09:19:30;4.60;;;3.13;;
61471;SDS011;47337;54.068;12.114;2023-05-07T09:21:59;5.32;;;2.72;;
61471;SDS011;47337;54.068;12.114;2023-05-07T09:24:25;5.07;;;2.55;;
61471;SDS011;47337;54.068;12.114;2023-05-07T09:26:51;5.15;;;2.50;;
61471;SDS011;47337;54.068;12.114;2023-05-07T09:29:17;3.72;;;2.13;;
61471;SDS011;47337;54.068;12.114;2023-05-07T09:31:43;4.13;;;2.33;;
61471;SDS011;47337;54.068;12.114;2023-05-07T09:34:08;3.28;;;2.38;;
61471;SDS011;47337;54.068;12.114;2023-05-07T09:36:33;4.07;;;2.35;;
61471;SDS011;47337;54.068;12.114;2023-05-07T09:38:59;5.10;;;2.65;;
61471;SDS011;47337;54.068;12.114;2023-05-07T09:41:25;4.75;;;2.58;;
61471;SDS011;47337;54.068;12.114;2023-05-07T09:43:54;3.60;;;2.33;;
61471;SDS011;47337;54.068;12.114;2023-05-07T09:46:27;3.50;;;2.40;;
61471;SDS011;47337;54.068;12.114;2023-05-07T09:48:56;2.45;;;1.83;;
61471;SDS011;47337;54.068;12.114;2023-05-07T09:54:13;3.10;;;1.92;;
61471;SDS011;47337;54.068;12.114;2023-05-07T09:56:39;4.55;;;2.20;;
61471;SDS011;47337;54.068;12.114;2023-05-07T09:59:06;3.05;;;2.13;;
61471;SDS011;47337;54.068;12.114;2023-05-07T10:01:33;3.78;;;2.22;;
61471;SDS011;47337;54.068;12.114;2023-05-07T10:04:02;3.47;;;2.05;;
61471;SDS011;47337;54.068;12.114;2023-05-07T10:06:30;3.13;;;2.05;;
61471;SDS011;47337;54.068;12.114;2023-05-07T10:08:58;3.08;;;2.20;;
61471;SDS011;47337;54.068;12.114;2023-05-07T10:11:24;2.80;;;2.15;;
61471;SDS011;47337;54.068;12.114;2023-05-07T10:13:52;4.65;;;2.63;;
61471;SDS011;47337;54.068;12.114;2023-05-07T10:16:18;3.22;;;2.28;;
61471;SDS011;47337;54.068;12.114;2023-05-07T10:18:44;4.85;;;2.80;;
61471;SDS011;47337;54.068;12.114;2023-05-07T10:21:13;2.17;;;1.98;;
61471;SDS011;47337;54.068;12.114;2023-05-07T10:23:44;2.75;;;2.00;;
61471;SDS011;47337;54.068;12.114;2023-05-07T10:26:11;2.67;;;2.05;;
61471;SDS011;47337;54.068;12.114;2023-05-07T10:28:38;4.40;;;2.30;;
61471;SDS011;47337;54.068;12.114;2023-05-07T10:34:05;3.88;;;2.10;;
61471;SDS011;47337;54.068;12.114;2023-05-07T10:36:37;5.88;;;2.42;;
61471;SDS011;47337;54.068;12.114;2023-05-07T10:39:04;3.60;;;2.40;;
61471;SDS011;47337;54.068;12.114;2023-05-07T10:41:31;3.10;;;2.13;;
61471;SDS011;47337;54.068;12.114;2023-05-07T10:43:56;3.42;;;2.20;;
61471;SDS011;47337;54.068;12.114;2023-05-07T10:46:30;3.85;;;2.80;;
61471;SDS011;47337;54.068;12.114;2023-05-07T10:56:40;6.50;;;2.70;;
61471;SDS011;47337;54.068;12.114;2023-05-07T11:04:17;2.97;;;2.15;;
61471;SDS011;47337;54.068;12.114;2023-05-07T11:13:03;7.10;;;2.60;;
61471;SDS011;47337;54.068;12.114;2023-05-07T11:15:07;4.63;;;2.60;;
61471;SDS011;47337;54.068;12.114;2023-05-07T11:17:52;4.57;;;2.80;;
61471;SDS011;47337;54.068;12.114;2023-05-07T11:20:19;3.88;;;2.72;;
61471;SDS011;47337;54.068;12.114;2023-05-07T11:22:47;3.50;;;2.45;;
61471;SDS011;47337;54.068;12.114;2023-05-07T11:25:19;6.78;;;2.63;;
61471;SDS011;47337;54.068;12.114;2023-05-07T11:27:44;3.10;;;2.30;;
61471;SDS011;47337;54.068;12.114;2023-05-07T11:30:21;6.07;;;2.60;;
61471;SDS011;47337;54.068;12.114;2023-05-07T11:32:47;3.38;;;2.40;;
61471;SDS011;47337;54.068;12.114;2023-05-07T11:35:13;4.53;;;2.58;;
61471;SDS011;47337;54.068;12.114;2023-05-07T11:37:40;4.00;;;2.70;;
61471;SDS011;47337;54.068;12.114;2023-05-07T11:40:09;6.07;;;2.50;;
61471;SDS011;47337;54.068;12.114;2023-05-07T11:42:39;4.15;;;2.80;;
61471;SDS011;47337;54.068;12.114;2023-05-07T11:45:06;5.05;;;2.55;;
61471;SDS011;47337;54.068;12.114;2023-05-07T11:47:32;4.63;;;2.53;;
61471;SDS011;47337;54.068;12.114;2023-05-07T11:50:05;5.32;;;2.95;;
61471;SDS011;47337;54.068;12.114;2023-05-07T11:52:32;4.55;;;2.47;;
61471;SDS011;47337;54.068;12.114;2023-05-07T11:54:59;6.05;;;2.83;;
61471;SDS011;47337;54.068;12.114;2023-05-07T11:57:28;4.38;;;2.58;;
61471;SDS011;47337;54.068;12.114;2023-05-07T11:59:58;4.63;;;2.83;;
61471;SDS011;47337;54.068;12.114;2023-05-07T12:02:27;3.50;;;2.78;;
61471;SDS011;47337;54.068;12.114;2023-05-07T12:04:53;4.90;;;2.67;;
61471;SDS011;47337;54.068;12.114;2023-05-07T12:07:21;3.63;;;2.60;;
61471;SDS011;47337;54.068;12.114;2023-05-07T12:09:48;4.30;;;2.90;;
61471;SDS011;47337;54.068;12.114;2023-05-07T12:12:15;4.63;;;2.90;;
61471;SDS011;47337;54.068;12.114;2023-05-07T12:14:45;3.10;;;2.80;;
61471;SDS011;47337;54.068;12.114;2023-05-07T12:17:13;5.15;;;2.88;;
61471;SDS011;47337;54.068;12.114;2023-05-07T12:19:40;3.80;;;2.78;;
61471;SDS011;47337;54.068;12.114;2023-05-07T12:22:10;6.57;;;2.83;;
61471;SDS011;47337;54.068;12.114;2023-05-07T12:27:09;5.40;;;2.92;;
61471;SDS011;47337;54.068;12.114;2023-05-07T12:29:34;7.50;;;2.80;;
61471;SDS011;47337;54.068;12.114;2023-05-07T12:32:00;5.55;;;2.65;;
61471;SDS011;47337;54.068;12.114;2023-05-07T12:34:25;3.60;;;2.38;;
61471;SDS011;47337;54.068;12.114;2023-05-07T12:36:54;4.10;;;2.50;;
61471;SDS011;47337;54.068;12.114;2023-05-07T12:39:20;6.20;;;2.85;;
61471;SDS011;47337;54.068;12.114;2023-05-07T12:41:52;3.60;;;2.40;;
61471;SDS011;47337;54.068;12.114;2023-05-07T12:44:24;2.58;;;2.30;;
61471;SDS011;47337;54.068;12.114;2023-05-07T12:46:54;4.20;;;2.50;;
61471;SDS011;47337;54.068;12.114;2023-05-07T12:49:19;3.80;;;2.67;;
61471;SDS011;47337;54.068;12.114;2023-05-07T12:51:46;3.65;;;2.42;;
61471;SDS011;47337;54.068;12.114;2023-05-07T12:54:13;3.33;;;2.45;;
61471;SDS011;47337;54.068;12.114;2023-05-07T12:57:07;3.35;;;2.40;;
61471;SDS011;47337;54.068;12.114;2023-05-07T12:59:36;3.97;;;2.30;;
61471;SDS011;47337;54.068;12.114;2023-05-07T13:02:05;3.30;;;2.60;;
61471;SDS011;47337;54.068;12.114;2023-05-07T13:04:33;5.03;;;2.45;;
61471;SDS011;47337;54.068;12.114;2023-05-07T13:06:59;4.97;;;2.67;;
61471;SDS011;47337;54.068;12.114;2023-05-07T13:09:25;5.18;;;3.20;;
61471;SDS011;47337;54.068;12.114;2023-05-07T13:11:51;5.70;;;2.35;;
61471;SDS011;47337;54.068;12.114;2023-05-07T13:14:18;5.70;;;2.30;;
61471;SDS011;47337;54.068;12.114;2023-05-07T13:16:45;2.92;;;2.28;;
61471;SDS011;47337;54.068;12.114;2023-05-07T13:19:11;2.60;;;2.33;;
61471;SDS011;47337;54.068;12.114;2023-05-07T13:21:40;3.95;;;2.40;;
61471;SDS011;47337;54.068;12.114;2023-05-07T13:24:06;4.78;;;2.42;;
61471;SDS011;47337;54.068;12.114;2023-05-07T13:26:31;6.25;;;2.88;;
61471;SDS011;47337;54.068;12.114;2023-05-07T13:28:57;3.55;;;2.30;;
61471;SDS011;47337;54.068;12.114;2023-05-07T13:31:23;5.28;;;2.60;;
61471;SDS011;47337;54.068;12.114;2023-05-07T13:33:49;7.05;;;2.80;;
61471;SDS011;47337;54.068;12.114;2023-05-07T13:36:17;3.45;;;2.60;;
61471;SDS011;47337;54.068;12.114;2023-05-07T13:38:45;2.72;;;2.10;;
61471;SDS011;47337;54.068;12.114;2023-05-07T13:41:13;4.07;;;2.38;;
61471;SDS011;47337;54.068;12.114;2023-05-07T13:43:39;4.18;;;2.47;;
61471;SDS011;47337;54.068;12.114;2023-05-07T13:46:08;3.53;;;2.10;;
61471;SDS011;47337;54.068;12.114;2023-05-07T13:48:34;2.38;;;2.10;;
61471;SDS011;47337;54.068;12.114;2023-05-07T13:50:59;5.13;;;2.88;;
61471;SDS011;47337;54.068;12.114;2023-05-07T13:53:27;3.78;;;2.20;;
61471;SDS011;47337;54.068;12.114;2023-05-07T13:55:55;2.60;;;1.92;;
61471;SDS011;47337;54.068;12.114;2023-05-07T13:58:20;4.00;;;2.40;;
61471;SDS011;47337;54.068;12.114;2023-05-07T14:00:48;3.35;;;2.13;;
61471;SDS011;47337;54.068;12.114;2023-05-07T14:03:18;2.08;;;1.80;;
61471;SDS011;47337;54.068;12.114;2023-05-07T14:05:45;3.15;;;2.05;;
61471;SDS011;47337;54.068;12.114;2023-05-07T14:08:11;2.92;;;2.40;;
61471;SDS011;47337;54.068;12.114;2023-05-07T14:10:39;3.78;;;2.30;;
61471;SDS011;47337;54.068;12.114;2023-05-07T14:13:05;3.90;;;1.88;;
61471;SDS011;47337;54.068;12.114;2023-05-07T14:15:33;3.90;;;2.30;;
61471;SDS011;47337;54.068;12.114;2023-05-07T14:17:58;2.67;;;1.95;;
61471;SDS011;47337;54.068;12.114;2023-05-07T14:20:26;2.83;;;2.08;;
61471;SDS011;47337;54.068;12.114;2023-05-07T14:22:51;3.38;;;2.22;;
61471;SDS011;47337;54.068;12.114;2023-05-07T14:25:17;5.00;;;2.30;;
61471;SDS011;47337;54.068;12.114;2023-05-07T14:27:44;3.33;;;2.17;;
61471;SDS011;47337;54.068;12.114;2023-05-07T14:30:12;3.08;;;2.13;;
61471;SDS011;47337;54.068;12.114;2023-05-07T14:32:38;2.67;;;2.20;;
61471;SDS011;47337;54.068;12.114;2023-05-07T14:35:03;3.25;;;2.50;;
61471;SDS011;47337;54.068;12.114;2023-05-07T14:37:29;2.75;;;2.50;;
61471;SDS011;47337;54.068;12.114;2023-05-07T14:39:57;3.30;;;2.03;;
61471;SDS011;47337;54.068;12.114;2023-05-07T14:42:22;3.10;;;2.20;;
61471;SDS011;47337;54.068;12.114;2023-05-07T14:44:48;2.75;;;1.85;;
61471;SDS011;47337;54.068;12.114;2023-05-07T14:47:15;5.20;;;2.22;;
61471;SDS011;47337;54.068;12.114;2023-05-07T14:49:41;4.47;;;1.80;;
61471;SDS011;47337;54.068;12.114;2023-05-07T14:52:08;2.60;;;1.80;;
61471;SDS011;47337;54.068;12.114;2023-05-07T14:54:35;4.82;;;1.52;;
61471;SDS011;47337;54.068;12.114;2023-05-07T14:57:02;2.65;;;2.08;;
61471;SDS011;47337;54.068;12.114;2023-05-07T14:59:27;2.47;;;1.52;;
61471;SDS011;47337;54.068;12.114;2023-05-07T15:01:53;2.75;;;1.73;;